sensor_id;sensor_type;location;lat;lon;timestamp;temperature;humidity
2577;DHT22;1298;51.252;6.802;2023-05-17T00:01:45;9.30;99.90
2577;DHT22;1298;51.252;6.802;2023-05-17T00:04:30;9.30;99.90
2577;DHT22;1298;51.252;6.802;2023-05-17T00:07:16;9.30;99.90
2577;DHT22;1298;51.252;6.802;2023-05-17T00:10:02;9.30;99.90
2577;DHT22;1298;51.252;6.802;2023-05-17T00:12:47;9.30;99.90
2577;DHT22;1298;51.252;6.802;2023-05-17T00:15:32;9.20;99.90
2577;DHT22;1298;51.252;6.802;2023-05-17T00:18:18;9.10;99.90
2577;DHT22;1298;51.252;6.802;2023-05-17T00:21:03;9.10;99.90
2577;DHT22;1298;51.252;6.802;2023-05-17T00:23:48;9.10;99.90
2577;DHT22;1298;51.252;6.802;2023-05-17T00:26:34;9.10;99.90
2577;DHT22;1298;51.252;6.802;2023-05-17T00:29:19;9.00;99.90
2577;DHT22;1298;51.252;6.802;2023-05-17T00:32:04;9.00;99.90
2577;DHT22;1298;51.252;6.802;2023-05-17T00:34:50;9.00;99.90
2577;DHT22;1298;51.252;6.802;2023-05-17T00:37:35;8.90;99.90
2577;DHT22;1298;51.252;6.802;2023-05-17T00:40:20;9.00;99.90
2577;DHT22;1298;51.252;6.802;2023-05-17T00:43:06;8.90;99.90
2577;DHT22;1298;51.252;6.802;2023-05-17T00:45:51;9.00;99.90
2577;DHT22;1298;51.252;6.802;2023-05-17T00:48:37;8.90;99.90
2577;DHT22;1298;51.252;6.802;2023-05-17T00:51:23;8.90;99.90
2577;DHT22;1298;51.252;6.802;2023-05-17T00:54:08;8.90;99.90
2577;DHT22;1298;51.252;6.802;2023-05-17T00:56:53;8.90;99.90
2577;DHT22;1298;51.252;6.802;2023-05-17T00:59:41;8.90;99.90
2577;DHT22;1298;51.252;6.802;2023-05-17T01:02:28;8.80;99.90
2577;DHT22;1298;51.252;6.802;2023-05-17T01:05:13;8.80;99.90
2577;DHT22;1298;51.252;6.802;2023-05-17T01:07:58;8.70;99.90
2577;DHT22;1298;51.252;6.802;2023-05-17T01:10:46;8.70;99.90
2577;DHT22;1298;51.252;6.802;2023-05-17T01:13:37;8.60;99.90
2577;DHT22;1298;51.252;6.802;2023-05-17T01:16:26;8.60;99.90
2577;DHT22;1298;51.252;6.802;2023-05-17T01:19:17;8.60;99.90
2577;DHT22;1298;51.252;6.802;2023-05-17T01:22:08;8.60;99.90
2577;DHT22;1298;51.252;6.802;2023-05-17T01:25:00;8.60;99.90
2577;DHT22;1298;51.252;6.802;2023-05-17T01:27:49;8.60;99.90
2577;DHT22;1298;51.252;6.802;2023-05-17T01:30:36;8.50;99.90
2577;DHT22;1298;51.252;6.802;2023-05-17T01:33:22;8.50;99.90
2577;DHT22;1298;51.252;6.802;2023-05-17T01:36:07;8.40;99.90
2577;DHT22;1298;51.252;6.802;2023-05-17T01:38:52;8.40;99.90
2577;DHT22;1298;51.252;6.802;2023-05-17T01:41:38;8.40;99.90
2577;DHT22;1298;51.252;6.802;2023-05-17T01:44:28;8.40;99.90
2577;DHT22;1298;51.252;6.802;2023-05-17T01:47:19;8.30;99.90
2577;DHT22;1298;51.252;6.802;2023-05-17T01:50:08;8.30;99.90
2577;DHT22;1298;51.252;6.802;2023-05-17T01:52:54;8.20;99.90
2577;DHT22;1298;51.252;6.802;2023-05-17T01:55:43;8.20;99.90
2577;DHT22;1298;51.252;6.802;2023-05-17T01:58:32;8.20;99.90
2577;DHT22;1298;51.252;6.802;2023-05-17T02:01:21;8.20;99.90
2577;DHT22;1298;51.252;6.802;2023-05-17T02:04:08;8.20;99.90
2577;DHT22;1298;51.252;6.802;2023-05-17T02:06:53;8.20;99.90
2577;DHT22;1298;51.252;6.802;2023-05-17T02:09:38;8.10;99.90
2577;DHT22;1298;51.252;6.802;2023-05-17T02:12:24;8.10;99.90
2577;DHT22;1298;51.252;6.802;2023-05-17T02:15:09;8.10;99.90
2577;DHT22;1298;51.252;6.802;2023-05-17T02:17:57;8.10;99.90
2577;DHT22;1298;51.252;6.802;2023-05-17T02:20:43;8.10;99.90
2577;DHT22;1298;51.252;6.802;2023-05-17T02:23:28;8.10;99.90
2577;DHT22;1298;51.252;6.802;2023-05-17T02:26:13;8.10;99.90
2577;DHT22;1298;51.252;6.802;2023-05-17T02:28:58;8.10;99.90
2577;DHT22;1298;51.252;6.802;2023-05-17T02:31:44;8.10;99.90
2577;DHT22;1298;51.252;6.802;2023-05-17T02:34:30;8.00;99.90
2577;DHT22;1298;51.252;6.802;2023-05-17T02:37:15;7.90;99.90
2577;DHT22;1298;51.252;6.802;2023-05-17T02:40:00;8.00;99.90
2577;DHT22;1298;51.252;6.802;2023-05-17T02:42:45;7.90;99.90
2577;DHT22;1298;51.252;6.802;2023-05-17T02:45:30;7.90;99.90
2577;DHT22;1298;51.252;6.802;2023-05-17T02:48:15;7.80;99.90
2577;DHT22;1298;51.252;6.802;2023-05-17T02:51:02;7.90;99.90
2577;DHT22;1298;51.252;6.802;2023-05-17T02:53:47;7.90;99.90
2577;DHT22;1298;51.252;6.802;2023-05-17T02:56:32;7.90;99.90
2577;DHT22;1298;51.252;6.802;2023-05-17T02:59:17;7.90;99.90
2577;DHT22;1298;51.252;6.802;2023-05-17T03:02:02;7.90;99.90
2577;DHT22;1298;51.252;6.802;2023-05-17T03:04:48;7.90;99.90
2577;DHT22;1298;51.252;6.802;2023-05-17T03:07:34;7.90;99.90
2577;DHT22;1298;51.252;6.802;2023-05-17T03:10:20;7.90;99.90
2577;DHT22;1298;51.252;6.802;2023-05-17T03:13:05;7.80;99.90
2577;DHT22;1298;51.252;6.802;2023-05-17T03:15:51;7.80;99.90
2577;DHT22;1298;51.252;6.802;2023-05-17T03:18:36;7.90;99.90
2577;DHT22;1298;51.252;6.802;2023-05-17T03:21:22;7.90;99.90
2577;DHT22;1298;51.252;6.802;2023-05-17T03:24:08;7.80;99.90
2577;DHT22;1298;51.252;6.802;2023-05-17T03:26:53;7.80;99.90
2577;DHT22;1298;51.252;6.802;2023-05-17T03:29:38;7.80;99.90
2577;DHT22;1298;51.252;6.802;2023-05-17T03:32:23;7.70;99.90
2577;DHT22;1298;51.252;6.802;2023-05-17T03:35:09;7.80;99.90
2577;DHT22;1298;51.252;6.802;2023-05-17T03:37:54;7.70;99.90
2577;DHT22;1298;51.252;6.802;2023-05-17T03:40:40;7.80;99.90
2577;DHT22;1298;51.252;6.802;2023-05-17T03:43:25;7.80;99.90
2577;DHT22;1298;51.252;6.802;2023-05-17T03:46:11;7.80;99.90
2577;DHT22;1298;51.252;6.802;2023-05-17T03:48:57;7.80;99.90
2577;DHT22;1298;51.252;6.802;2023-05-17T03:51:42;7.90;99.90
2577;DHT22;1298;51.252;6.802;2023-05-17T03:54:28;7.90;99.90
2577;DHT22;1298;51.252;6.802;2023-05-17T03:57:14;8.00;99.90
2577;DHT22;1298;51.252;6.802;2023-05-17T03:59:59;8.00;99.90
2577;DHT22;1298;51.252;6.802;2023-05-17T04:02:44;8.00;99.90
2577;DHT22;1298;51.252;6.802;2023-05-17T04:05:29;8.00;99.90
2577;DHT22;1298;51.252;6.802;2023-05-17T04:08:15;8.10;99.90
2577;DHT22;1298;51.252;6.802;2023-05-17T04:11:00;8.10;99.90
2577;DHT22;1298;51.252;6.802;2023-05-17T04:13:54;8.10;99.90
2577;DHT22;1298;51.252;6.802;2023-05-17T04:16:40;8.20;99.90
2577;DHT22;1298;51.252;6.802;2023-05-17T04:19:25;8.20;99.90
2577;DHT22;1298;51.252;6.802;2023-05-17T04:22:10;8.30;99.90
2577;DHT22;1298;51.252;6.802;2023-05-17T04:24:55;8.30;99.90
2577;DHT22;1298;51.252;6.802;2023-05-17T04:27:40;8.30;99.90
2577;DHT22;1298;51.252;6.802;2023-05-17T04:30:27;8.30;99.90
2577;DHT22;1298;51.252;6.802;2023-05-17T04:33:12;8.30;99.90
2577;DHT22;1298;51.252;6.802;2023-05-17T04:35:57;8.40;99.90
2577;DHT22;1298;51.252;6.802;2023-05-17T04:38:42;8.40;99.90
2577;DHT22;1298;51.252;6.802;2023-05-17T04:41:28;8.40;99.90
2577;DHT22;1298;51.252;6.802;2023-05-17T04:44:14;8.50;99.90
2577;DHT22;1298;51.252;6.802;2023-05-17T04:47:01;8.50;99.90
2577;DHT22;1298;51.252;6.802;2023-05-17T04:49:46;8.50;99.90
2577;DHT22;1298;51.252;6.802;2023-05-17T04:52:32;8.50;99.90
2577;DHT22;1298;51.252;6.802;2023-05-17T04:55:17;8.60;99.90
2577;DHT22;1298;51.252;6.802;2023-05-17T04:58:02;8.70;99.90
2577;DHT22;1298;51.252;6.802;2023-05-17T05:00:47;8.70;99.90
2577;DHT22;1298;51.252;6.802;2023-05-17T05:03:33;8.70;99.90
2577;DHT22;1298;51.252;6.802;2023-05-17T05:06:19;8.70;99.90
2577;DHT22;1298;51.252;6.802;2023-05-17T05:09:05;8.70;99.90
2577;DHT22;1298;51.252;6.802;2023-05-17T05:11:50;8.70;99.90
2577;DHT22;1298;51.252;6.802;2023-05-17T05:14:35;8.70;99.90
2577;DHT22;1298;51.252;6.802;2023-05-17T05:17:20;8.80;99.90
2577;DHT22;1298;51.252;6.802;2023-05-17T05:20:07;8.90;99.90
2577;DHT22;1298;51.252;6.802;2023-05-17T05:22:52;8.90;99.90
2577;DHT22;1298;51.252;6.802;2023-05-17T05:25:38;8.90;99.90
2577;DHT22;1298;51.252;6.802;2023-05-17T05:28:23;9.00;99.90
2577;DHT22;1298;51.252;6.802;2023-05-17T05:31:08;9.00;99.90
2577;DHT22;1298;51.252;6.802;2023-05-17T05:33:53;9.10;99.90
2577;DHT22;1298;51.252;6.802;2023-05-17T05:36:39;9.20;99.90
2577;DHT22;1298;51.252;6.802;2023-05-17T05:39:24;9.20;99.90
2577;DHT22;1298;51.252;6.802;2023-05-17T05:42:10;9.30;99.90
2577;DHT22;1298;51.252;6.802;2023-05-17T05:44:56;9.30;99.90
2577;DHT22;1298;51.252;6.802;2023-05-17T05:47:41;9.40;99.90
2577;DHT22;1298;51.252;6.802;2023-05-17T05:50:26;9.50;99.90
2577;DHT22;1298;51.252;6.802;2023-05-17T05:53:12;9.50;99.90
2577;DHT22;1298;51.252;6.802;2023-05-17T05:55:58;9.60;99.90
2577;DHT22;1298;51.252;6.802;2023-05-17T05:58:43;9.60;99.90
2577;DHT22;1298;51.252;6.802;2023-05-17T06:01:28;9.60;99.90
2577;DHT22;1298;51.252;6.802;2023-05-17T06:04:13;9.80;99.90
2577;DHT22;1298;51.252;6.802;2023-05-17T06:06:59;9.80;99.90
2577;DHT22;1298;51.252;6.802;2023-05-17T06:09:45;9.80;99.90
2577;DHT22;1298;51.252;6.802;2023-05-17T06:12:30;10.00;99.90
2577;DHT22;1298;51.252;6.802;2023-05-17T06:15:15;10.10;99.90
2577;DHT22;1298;51.252;6.802;2023-05-17T06:18:01;10.20;99.90
2577;DHT22;1298;51.252;6.802;2023-05-17T06:20:46;10.20;99.90
2577;DHT22;1298;51.252;6.802;2023-05-17T06:23:31;10.40;99.90
2577;DHT22;1298;51.252;6.802;2023-05-17T06:26:18;10.50;99.90
2577;DHT22;1298;51.252;6.802;2023-05-17T06:29:03;10.60;99.90
2577;DHT22;1298;51.252;6.802;2023-05-17T06:31:48;10.70;99.90
2577;DHT22;1298;51.252;6.802;2023-05-17T06:34:33;10.70;99.90
2577;DHT22;1298;51.252;6.802;2023-05-17T06:37:18;10.80;99.90
2577;DHT22;1298;51.252;6.802;2023-05-17T06:40:05;10.80;99.90
2577;DHT22;1298;51.252;6.802;2023-05-17T06:42:52;10.90;99.90
2577;DHT22;1298;51.252;6.802;2023-05-17T06:45:38;11.10;99.90
2577;DHT22;1298;51.252;6.802;2023-05-17T06:48:23;11.30;99.90
2577;DHT22;1298;51.252;6.802;2023-05-17T06:51:08;11.50;99.90
2577;DHT22;1298;51.252;6.802;2023-05-17T06:53:54;11.60;99.90
2577;DHT22;1298;51.252;6.802;2023-05-17T06:56:39;11.50;99.90
2577;DHT22;1298;51.252;6.802;2023-05-17T06:59:26;11.70;99.90
2577;DHT22;1298;51.252;6.802;2023-05-17T07:02:11;11.90;99.90
2577;DHT22;1298;51.252;6.802;2023-05-17T07:04:56;12.10;99.90
2577;DHT22;1298;51.252;6.802;2023-05-17T07:07:41;12.30;99.90
2577;DHT22;1298;51.252;6.802;2023-05-17T07:10:26;12.30;99.90
2577;DHT22;1298;51.252;6.802;2023-05-17T07:13:11;12.50;99.90
2577;DHT22;1298;51.252;6.802;2023-05-17T07:15:58;12.40;99.90
2577;DHT22;1298;51.252;6.802;2023-05-17T07:18:44;12.50;99.90
2577;DHT22;1298;51.252;6.802;2023-05-17T07:21:30;12.50;99.90
2577;DHT22;1298;51.252;6.802;2023-05-17T07:24:16;12.50;99.90
2577;DHT22;1298;51.252;6.802;2023-05-17T07:27:01;12.50;99.90
2577;DHT22;1298;51.252;6.802;2023-05-17T07:29:46;12.50;99.90
2577;DHT22;1298;51.252;6.802;2023-05-17T07:32:33;12.50;99.90
2577;DHT22;1298;51.252;6.802;2023-05-17T07:35:18;12.50;99.90
2577;DHT22;1298;51.252;6.802;2023-05-17T07:38:03;12.50;99.90
2577;DHT22;1298;51.252;6.802;2023-05-17T07:40:48;12.50;99.90
2577;DHT22;1298;51.252;6.802;2023-05-17T07:43:34;12.40;99.90
2577;DHT22;1298;51.252;6.802;2023-05-17T07:46:19;12.50;99.90
2577;DHT22;1298;51.252;6.802;2023-05-17T07:49:05;12.60;99.90
2577;DHT22;1298;51.252;6.802;2023-05-17T07:51:50;12.70;99.90
2577;DHT22;1298;51.252;6.802;2023-05-17T07:54:36;12.80;99.90
2577;DHT22;1298;51.252;6.802;2023-05-17T07:57:21;12.80;99.90
2577;DHT22;1298;51.252;6.802;2023-05-17T08:00:06;12.80;99.90
2577;DHT22;1298;51.252;6.802;2023-05-17T08:02:57;12.90;99.90
2577;DHT22;1298;51.252;6.802;2023-05-17T08:05:46;13.10;99.90
2577;DHT22;1298;51.252;6.802;2023-05-17T08:08:31;13.20;99.90
2577;DHT22;1298;51.252;6.802;2023-05-17T08:11:17;13.40;99.90
2577;DHT22;1298;51.252;6.802;2023-05-17T08:14:02;13.50;99.90
2577;DHT22;1298;51.252;6.802;2023-05-17T08:16:48;13.60;99.90
2577;DHT22;1298;51.252;6.802;2023-05-17T08:19:34;13.70;99.90
2577;DHT22;1298;51.252;6.802;2023-05-17T08:22:21;13.80;99.90
2577;DHT22;1298;51.252;6.802;2023-05-17T08:25:06;13.70;99.90
2577;DHT22;1298;51.252;6.802;2023-05-17T08:27:52;13.80;99.90
2577;DHT22;1298;51.252;6.802;2023-05-17T08:30:37;13.90;99.90
2577;DHT22;1298;51.252;6.802;2023-05-17T08:33:22;14.10;99.90
2577;DHT22;1298;51.252;6.802;2023-05-17T08:36:08;14.30;99.90
2577;DHT22;1298;51.252;6.802;2023-05-17T08:38:55;14.20;99.90
2577;DHT22;1298;51.252;6.802;2023-05-17T08:41:41;14.10;99.90
2577;DHT22;1298;51.252;6.802;2023-05-17T08:44:26;14.00;99.90
2577;DHT22;1298;51.252;6.802;2023-05-17T08:47:12;14.00;99.90
2577;DHT22;1298;51.252;6.802;2023-05-17T08:50:09;13.80;99.90
2577;DHT22;1298;51.252;6.802;2023-05-17T08:52:55;13.60;99.90
2577;DHT22;1298;51.252;6.802;2023-05-17T08:55:43;13.60;99.90
2577;DHT22;1298;51.252;6.802;2023-05-17T08:58:30;13.40;99.90
2577;DHT22;1298;51.252;6.802;2023-05-17T09:01:17;13.10;99.90
2577;DHT22;1298;51.252;6.802;2023-05-17T09:04:03;13.00;99.90
2577;DHT22;1298;51.252;6.802;2023-05-17T09:06:48;13.30;99.90
2577;DHT22;1298;51.252;6.802;2023-05-17T09:09:34;13.20;99.90
2577;DHT22;1298;51.252;6.802;2023-05-17T09:12:21;13.00;99.90
2577;DHT22;1298;51.252;6.802;2023-05-17T09:15:13;12.90;99.90
2577;DHT22;1298;51.252;6.802;2023-05-17T09:17:59;12.60;99.90
2577;DHT22;1298;51.252;6.802;2023-05-17T09:20:48;12.50;99.90
2577;DHT22;1298;51.252;6.802;2023-05-17T09:23:36;12.70;99.90
2577;DHT22;1298;51.252;6.802;2023-05-17T09:26:21;12.90;99.90
2577;DHT22;1298;51.252;6.802;2023-05-17T09:29:08;12.80;99.90
2577;DHT22;1298;51.252;6.802;2023-05-17T09:31:55;12.70;99.90
2577;DHT22;1298;51.252;6.802;2023-05-17T09:34:44;12.80;99.90
2577;DHT22;1298;51.252;6.802;2023-05-17T09:37:29;13.00;99.90
2577;DHT22;1298;51.252;6.802;2023-05-17T09:40:22;13.10;99.90
2577;DHT22;1298;51.252;6.802;2023-05-17T09:43:10;12.90;99.90
2577;DHT22;1298;51.252;6.802;2023-05-17T09:45:57;12.90;99.90
2577;DHT22;1298;51.252;6.802;2023-05-17T09:48:43;12.80;99.90
2577;DHT22;1298;51.252;6.802;2023-05-17T09:51:30;13.00;99.90
2577;DHT22;1298;51.252;6.802;2023-05-17T09:54:15;13.10;99.90
2577;DHT22;1298;51.252;6.802;2023-05-17T09:57:01;13.20;99.90
2577;DHT22;1298;51.252;6.802;2023-05-17T09:59:50;13.20;99.90
2577;DHT22;1298;51.252;6.802;2023-05-17T10:02:40;13.20;99.90
2577;DHT22;1298;51.252;6.802;2023-05-17T10:05:26;13.40;99.90
2577;DHT22;1298;51.252;6.802;2023-05-17T10:08:11;13.20;99.90
2577;DHT22;1298;51.252;6.802;2023-05-17T10:10:59;13.10;99.90
2577;DHT22;1298;51.252;6.802;2023-05-17T10:13:46;13.10;99.90
2577;DHT22;1298;51.252;6.802;2023-05-17T10:16:33;13.30;99.90
2577;DHT22;1298;51.252;6.802;2023-05-17T10:19:20;13.30;99.90
2577;DHT22;1298;51.252;6.802;2023-05-17T10:22:07;13.30;99.90
2577;DHT22;1298;51.252;6.802;2023-05-17T10:24:52;13.30;99.90
2577;DHT22;1298;51.252;6.802;2023-05-17T10:27:39;13.40;99.90
2577;DHT22;1298;51.252;6.802;2023-05-17T10:30:25;13.50;99.90
2577;DHT22;1298;51.252;6.802;2023-05-17T10:33:11;13.70;99.90
2577;DHT22;1298;51.252;6.802;2023-05-17T10:35:58;13.90;99.90
2577;DHT22;1298;51.252;6.802;2023-05-17T10:38:45;14.00;99.90
2577;DHT22;1298;51.252;6.802;2023-05-17T10:41:32;14.30;99.90
2577;DHT22;1298;51.252;6.802;2023-05-17T10:44:17;14.50;99.90
2577;DHT22;1298;51.252;6.802;2023-05-17T10:47:03;14.50;99.90
2577;DHT22;1298;51.252;6.802;2023-05-17T10:49:49;14.30;99.90
2577;DHT22;1298;51.252;6.802;2023-05-17T10:52:37;14.10;99.90
2577;DHT22;1298;51.252;6.802;2023-05-17T10:55:23;14.30;99.90
2577;DHT22;1298;51.252;6.802;2023-05-17T10:58:13;14.50;99.90
2577;DHT22;1298;51.252;6.802;2023-05-17T11:00:59;14.60;99.90
2577;DHT22;1298;51.252;6.802;2023-05-17T11:03:46;14.40;99.90
2577;DHT22;1298;51.252;6.802;2023-05-17T11:06:34;14.60;99.90
2577;DHT22;1298;51.252;6.802;2023-05-17T11:09:22;14.50;99.90
2577;DHT22;1298;51.252;6.802;2023-05-17T11:12:08;14.50;99.90
2577;DHT22;1298;51.252;6.802;2023-05-17T11:14:54;14.60;99.90
2577;DHT22;1298;51.252;6.802;2023-05-17T11:17:47;15.00;99.90
2577;DHT22;1298;51.252;6.802;2023-05-17T11:20:33;15.30;99.90
2577;DHT22;1298;51.252;6.802;2023-05-17T11:23:19;15.50;99.90
2577;DHT22;1298;51.252;6.802;2023-05-17T11:26:12;15.40;99.90
2577;DHT22;1298;51.252;6.802;2023-05-17T11:29:00;15.30;99.90
2577;DHT22;1298;51.252;6.802;2023-05-17T11:31:49;15.20;99.90
2577;DHT22;1298;51.252;6.802;2023-05-17T11:34:35;14.50;99.90
2577;DHT22;1298;51.252;6.802;2023-05-17T11:37:24;14.30;99.90
2577;DHT22;1298;51.252;6.802;2023-05-17T11:40:10;14.30;99.90
2577;DHT22;1298;51.252;6.802;2023-05-17T11:43:12;14.50;99.90
2577;DHT22;1298;51.252;6.802;2023-05-17T11:45:57;14.80;99.90
2577;DHT22;1298;51.252;6.802;2023-05-17T11:48:44;14.90;99.90
2577;DHT22;1298;51.252;6.802;2023-05-17T11:51:30;15.00;99.90
2577;DHT22;1298;51.252;6.802;2023-05-17T11:54:15;14.80;99.90
2577;DHT22;1298;51.252;6.802;2023-05-17T11:57:01;14.70;99.90
2577;DHT22;1298;51.252;6.802;2023-05-17T11:59:48;15.00;99.90
2577;DHT22;1298;51.252;6.802;2023-05-17T12:02:42;14.80;99.90
2577;DHT22;1298;51.252;6.802;2023-05-17T12:05:27;14.80;99.90
2577;DHT22;1298;51.252;6.802;2023-05-17T12:08:13;14.90;99.90
2577;DHT22;1298;51.252;6.802;2023-05-17T12:10:59;15.00;99.90
2577;DHT22;1298;51.252;6.802;2023-05-17T12:13:45;15.20;99.90
2577;DHT22;1298;51.252;6.802;2023-05-17T12:16:33;15.30;99.90
2577;DHT22;1298;51.252;6.802;2023-05-17T12:19:19;15.50;99.90
2577;DHT22;1298;51.252;6.802;2023-05-17T12:22:06;15.30;99.90
2577;DHT22;1298;51.252;6.802;2023-05-17T12:24:55;15.20;99.90
2577;DHT22;1298;51.252;6.802;2023-05-17T12:27:39;15.60;99.90
2577;DHT22;1298;51.252;6.802;2023-05-17T12:30:25;15.50;99.90
2577;DHT22;1298;51.252;6.802;2023-05-17T12:33:12;15.50;99.90
2577;DHT22;1298;51.252;6.802;2023-05-17T12:35:57;15.40;99.90
2577;DHT22;1298;51.252;6.802;2023-05-17T12:38:43;15.30;99.90
2577;DHT22;1298;51.252;6.802;2023-05-17T12:41:30;15.00;99.90
2577;DHT22;1298;51.252;6.802;2023-05-17T12:44:16;15.10;99.90
2577;DHT22;1298;51.252;6.802;2023-05-17T12:47:01;15.30;99.90
2577;DHT22;1298;51.252;6.802;2023-05-17T12:49:51;15.70;99.90
2577;DHT22;1298;51.252;6.802;2023-05-17T12:52:37;15.90;99.90
2577;DHT22;1298;51.252;6.802;2023-05-17T12:55:24;16.60;99.90
2577;DHT22;1298;51.252;6.802;2023-05-17T12:58:10;17.30;99.90
2577;DHT22;1298;51.252;6.802;2023-05-17T13:00:56;17.20;99.90
2577;DHT22;1298;51.252;6.802;2023-05-17T13:03:41;16.80;99.90
2577;DHT22;1298;51.252;6.802;2023-05-17T13:06:28;17.30;99.90
2577;DHT22;1298;51.252;6.802;2023-05-17T13:09:14;17.50;99.90
2577;DHT22;1298;51.252;6.802;2023-05-17T13:12:01;17.90;99.90
2577;DHT22;1298;51.252;6.802;2023-05-17T13:14:49;18.00;99.90
2577;DHT22;1298;51.252;6.802;2023-05-17T13:17:35;17.70;99.90
2577;DHT22;1298;51.252;6.802;2023-05-17T13:20:26;17.60;99.90
2577;DHT22;1298;51.252;6.802;2023-05-17T13:23:13;17.70;99.90
2577;DHT22;1298;51.252;6.802;2023-05-17T13:25:59;17.50;99.90
2577;DHT22;1298;51.252;6.802;2023-05-17T13:28:44;17.50;99.90
2577;DHT22;1298;51.252;6.802;2023-05-17T13:31:30;18.70;99.90
2577;DHT22;1298;51.252;6.802;2023-05-17T13:34:15;19.40;99.90
2577;DHT22;1298;51.252;6.802;2023-05-17T13:37:00;19.00;99.90
2577;DHT22;1298;51.252;6.802;2023-05-17T13:39:47;19.00;99.90
2577;DHT22;1298;51.252;6.802;2023-05-17T13:42:32;19.60;99.90
2577;DHT22;1298;51.252;6.802;2023-05-17T13:45:17;20.40;99.90
2577;DHT22;1298;51.252;6.802;2023-05-17T13:48:03;20.10;99.90
2577;DHT22;1298;51.252;6.802;2023-05-17T13:50:48;20.20;99.90
2577;DHT22;1298;51.252;6.802;2023-05-17T13:53:33;20.80;99.90
2577;DHT22;1298;51.252;6.802;2023-05-17T13:56:23;20.60;99.90
2577;DHT22;1298;51.252;6.802;2023-05-17T13:59:08;19.20;99.90
2577;DHT22;1298;51.252;6.802;2023-05-17T14:01:53;18.70;99.90
2577;DHT22;1298;51.252;6.802;2023-05-17T14:04:38;18.50;99.90
2577;DHT22;1298;51.252;6.802;2023-05-17T14:07:24;19.10;99.90
2577;DHT22;1298;51.252;6.802;2023-05-17T14:10:10;19.10;99.90
2577;DHT22;1298;51.252;6.802;2023-05-17T14:12:57;19.60;99.90
2577;DHT22;1298;51.252;6.802;2023-05-17T14:15:42;19.90;99.90
2577;DHT22;1298;51.252;6.802;2023-05-17T14:18:27;20.10;99.90
2577;DHT22;1298;51.252;6.802;2023-05-17T14:21:14;20.00;99.90
2577;DHT22;1298;51.252;6.802;2023-05-17T14:23:59;20.30;99.90
2577;DHT22;1298;51.252;6.802;2023-05-17T14:26:44;21.10;99.90
2577;DHT22;1298;51.252;6.802;2023-05-17T14:29:30;21.50;99.90
2577;DHT22;1298;51.252;6.802;2023-05-17T14:32:16;22.00;99.90
2577;DHT22;1298;51.252;6.802;2023-05-17T14:35:01;22.40;99.90
2577;DHT22;1298;51.252;6.802;2023-05-17T14:37:46;23.10;99.90
2577;DHT22;1298;51.252;6.802;2023-05-17T14:40:31;23.10;99.90
2577;DHT22;1298;51.252;6.802;2023-05-17T14:43:16;22.40;99.90
2577;DHT22;1298;51.252;6.802;2023-05-17T14:46:04;21.80;99.90
2577;DHT22;1298;51.252;6.802;2023-05-17T14:48:49;21.90;99.90
2577;DHT22;1298;51.252;6.802;2023-05-17T14:51:35;21.80;99.90
2577;DHT22;1298;51.252;6.802;2023-05-17T14:54:20;22.20;99.90
2577;DHT22;1298;51.252;6.802;2023-05-17T14:57:06;23.10;99.90
2577;DHT22;1298;51.252;6.802;2023-05-17T14:59:52;24.00;99.90
2577;DHT22;1298;51.252;6.802;2023-05-17T15:02:39;24.60;99.90
2577;DHT22;1298;51.252;6.802;2023-05-17T15:05:24;25.40;99.90
2577;DHT22;1298;51.252;6.802;2023-05-17T15:08:09;25.30;99.90
2577;DHT22;1298;51.252;6.802;2023-05-17T15:10:55;25.20;99.90
2577;DHT22;1298;51.252;6.802;2023-05-17T15:13:41;24.70;99.90
2577;DHT22;1298;51.252;6.802;2023-05-17T15:16:26;23.90;99.90
2577;DHT22;1298;51.252;6.802;2023-05-17T15:19:13;23.80;99.90
2577;DHT22;1298;51.252;6.802;2023-05-17T15:21:59;23.80;99.90
2577;DHT22;1298;51.252;6.802;2023-05-17T15:24:45;24.20;99.90
2577;DHT22;1298;51.252;6.802;2023-05-17T15:27:30;23.10;99.90
2577;DHT22;1298;51.252;6.802;2023-05-17T15:30:15;22.60;99.90
2577;DHT22;1298;51.252;6.802;2023-05-17T15:33:01;22.70;99.90
2577;DHT22;1298;51.252;6.802;2023-05-17T15:35:47;22.50;99.90
2577;DHT22;1298;51.252;6.802;2023-05-17T15:38:33;23.00;99.90
2577;DHT22;1298;51.252;6.802;2023-05-17T15:41:18;23.50;99.90
2577;DHT22;1298;51.252;6.802;2023-05-17T15:44:05;23.70;99.90
2577;DHT22;1298;51.252;6.802;2023-05-17T15:46:51;23.80;99.90
2577;DHT22;1298;51.252;6.802;2023-05-17T15:49:36;24.40;99.90
2577;DHT22;1298;51.252;6.802;2023-05-17T15:52:23;24.50;99.90
2577;DHT22;1298;51.252;6.802;2023-05-17T15:55:08;25.10;99.90
2577;DHT22;1298;51.252;6.802;2023-05-17T15:57:55;24.30;99.90
2577;DHT22;1298;51.252;6.802;2023-05-17T16:00:40;23.10;99.90
2577;DHT22;1298;51.252;6.802;2023-05-17T16:03:26;23.00;99.90
2577;DHT22;1298;51.252;6.802;2023-05-17T16:06:11;23.80;99.90
2577;DHT22;1298;51.252;6.802;2023-05-17T16:08:58;24.60;99.90
2577;DHT22;1298;51.252;6.802;2023-05-17T16:11:43;23.80;99.90
2577;DHT22;1298;51.252;6.802;2023-05-17T16:14:28;23.00;99.90
2577;DHT22;1298;51.252;6.802;2023-05-17T16:17:14;23.00;99.90
2577;DHT22;1298;51.252;6.802;2023-05-17T16:19:59;23.00;99.90
2577;DHT22;1298;51.252;6.802;2023-05-17T16:22:44;23.30;99.90
2577;DHT22;1298;51.252;6.802;2023-05-17T16:25:31;22.70;99.90
2577;DHT22;1298;51.252;6.802;2023-05-17T16:28:17;20.90;99.90
2577;DHT22;1298;51.252;6.802;2023-05-17T16:31:04;20.80;99.90
2577;DHT22;1298;51.252;6.802;2023-05-17T16:33:49;20.90;99.90
2577;DHT22;1298;51.252;6.802;2023-05-17T16:36:35;22.00;99.90
2577;DHT22;1298;51.252;6.802;2023-05-17T16:39:21;22.90;99.90
2577;DHT22;1298;51.252;6.802;2023-05-17T16:42:10;23.30;99.90
2577;DHT22;1298;51.252;6.802;2023-05-17T16:44:55;23.50;99.90
2577;DHT22;1298;51.252;6.802;2023-05-17T16:47:40;24.00;99.90
2577;DHT22;1298;51.252;6.802;2023-05-17T16:50:25;23.20;99.90
2577;DHT22;1298;51.252;6.802;2023-05-17T16:53:10;23.40;99.90
2577;DHT22;1298;51.252;6.802;2023-05-17T16:55:56;23.90;99.90
2577;DHT22;1298;51.252;6.802;2023-05-17T16:58:43;24.30;99.90
2577;DHT22;1298;51.252;6.802;2023-05-17T17:01:28;24.20;99.90
2577;DHT22;1298;51.252;6.802;2023-05-17T17:04:13;24.30;99.90
2577;DHT22;1298;51.252;6.802;2023-05-17T17:06:59;24.40;99.90
2577;DHT22;1298;51.252;6.802;2023-05-17T17:09:45;24.10;99.90
2577;DHT22;1298;51.252;6.802;2023-05-17T17:12:30;23.90;99.90
2577;DHT22;1298;51.252;6.802;2023-05-17T17:15:17;22.40;99.90
2577;DHT22;1298;51.252;6.802;2023-05-17T17:18:02;22.10;99.90
2577;DHT22;1298;51.252;6.802;2023-05-17T17:20:47;20.90;99.90
2577;DHT22;1298;51.252;6.802;2023-05-17T17:23:32;20.50;99.90
2577;DHT22;1298;51.252;6.802;2023-05-17T17:26:17;20.80;99.90
2577;DHT22;1298;51.252;6.802;2023-05-17T17:29:02;21.00;99.90
2577;DHT22;1298;51.252;6.802;2023-05-17T17:31:49;21.30;99.90
2577;DHT22;1298;51.252;6.802;2023-05-17T17:34:34;21.30;99.90
2577;DHT22;1298;51.252;6.802;2023-05-17T17:37:19;20.60;99.90
2577;DHT22;1298;51.252;6.802;2023-05-17T17:40:04;20.10;99.90
2577;DHT22;1298;51.252;6.802;2023-05-17T17:42:50;20.00;99.90
2577;DHT22;1298;51.252;6.802;2023-05-17T17:45:35;19.80;99.90
2577;DHT22;1298;51.252;6.802;2023-05-17T17:48:22;19.50;99.90
2577;DHT22;1298;51.252;6.802;2023-05-17T17:51:08;19.90;99.90
2577;DHT22;1298;51.252;6.802;2023-05-17T17:53:53;20.40;99.90
2577;DHT22;1298;51.252;6.802;2023-05-17T17:56:39;20.70;99.90
2577;DHT22;1298;51.252;6.802;2023-05-17T17:59:24;20.40;99.90
2577;DHT22;1298;51.252;6.802;2023-05-17T18:02:09;20.20;99.90
2577;DHT22;1298;51.252;6.802;2023-05-17T18:04:55;20.50;99.90
2577;DHT22;1298;51.252;6.802;2023-05-17T18:07:41;20.20;99.90
2577;DHT22;1298;51.252;6.802;2023-05-17T18:10:26;20.20;99.90